メインページ
METAR-TAF:

METAR-TAF

空港 :

バーレーン, バーレーン

バーレーン国際空港

緯度: 26-16N, 経度: 050-39E, 海抜: 2m

現時点の気象観測

当レポートは35分前の09:00(UTC)に作成
の風 10kt
気温 33°C
湿度 44%
気圧 1010 hPa
視程10km以上
1,500メートル以下は雲なし、積乱雲なし

METAR: OBBI 290900Z 10010KT CAVOK 33/19 Q1010 NOSIG

時間: 12:35 (09:35 UTC)

予報

当レポートは4時間35分前の05:00(UTC)に作成
予報は29日の 06時(UTC)から 30日の 12時(UTC)まで有効
北/北西の風 6kt
視程10km以上
1,500メートル以下は雲なし、積乱雲なし
29日の 09時(UTC)から 29日の 11時(UTC)まで徐々に
の風 12kt
29日の 19時(UTC)から 29日の 21時(UTC)まで徐々に
変向風 5kt
30日の 06時(UTC)から 30日の 08時(UTC)まで徐々に
北/北東の風 10kt

TAF: OBBI 290500Z 2906/3012 33006KT CAVOK BECMG 2909/2911 09012KT BECMG 2919/2921 VRB05KT BECMG 3006/3008 03010KT

4,000以上の空港の気象観測と天気予報(METAR報とTAF報)

利用可能な観測所は地図上に黄色い丸と赤い丸で示す。

丸の上にカーソルを重ねると観測所名を参照できる。

次にクリックすると気象観測と天気予報を参照できる。

マップの切り替え:黒色「×」印の緑ボタンをクリックして拡大、「-」印の緑ボタンをクリックして縮小、緑色の三角印をクリックして隣りの地図に切り替え


METAR-TAF: